Time;durP1;ratioP1;P1;durP2;ratioP2;P2;SDS_P1;SDS_P2;PMS_P1;PMS_P2;Temp;Humidity;BMP_temperature;BMP_pressure;BME280_temperature;BME280_humidity;BME280_pressure;Samples;Min_cycle;Max_cycle;Signal;HPM_P1;HPM_P2
2023/04/30 00:01:55;;;;;;;14.27;8.83;;;7.40;99.90;;;;;;4163180;28;20033;-78
2023/04/30 00:03:56;;;;;;;17.73;8.70;;;7.40;99.90;;;;;;4164451;28;20037;-78
2023/04/30 00:05:57;;;;;;;14.93;8.43;;;7.40;99.90;;;;;;4162646;28;20079;-76
2023/04/30 00:07:58;;;;;;;13.47;8.77;;;7.40;99.90;;;;;;4164211;28;20037;-77
2023/04/30 00:10:00;;;;;;;15.07;9.00;;;7.30;99.90;;;;;;4163208;28;20009;-72
2023/04/30 00:12:01;;;;;;;20.10;8.37;;;7.30;99.90;;;;;;4163616;28;20080;-77
2023/04/30 00:14:02;;;;;;;12.07;7.70;;;7.20;99.90;;;;;;4162972;28;20041;-77
2023/04/30 00:16:04;;;;;;;12.53;8.30;;;7.20;99.90;;;;;;4163066;28;20029;-77
2023/04/30 00:18:05;;;;;;;15.43;8.37;;;7.10;99.90;;;;;;4164047;28;20525;-79
2023/04/30 00:20:07;;;;;;;15.93;8.57;;;7.10;99.90;;;;;;4162634;28;20029;-79
2023/04/30 00:22:08;;;;;;;13.77;7.53;;;7.10;99.90;;;;;;4163776;28;20037;-78
2023/04/30 00:24:09;;;;;;;12.80;8.40;;;7.10;99.90;;;;;;4162793;28;20444;-77
2023/04/30 00:26:10;;;;;;;16.97;7.67;;;7.00;99.90;;;;;;4164230;28;20025;-78
2023/04/30 00:28:12;;;;;;;14.00;8.07;;;7.00;99.90;;;;;;4163296;28;20465;-79
2023/04/30 00:30:13;;;;;;;12.13;7.03;;;7.00;99.90;;;;;;4164332;28;20084;-78
2023/04/30 00:32:14;;;;;;;14.77;7.83;;;7.00;99.90;;;;;;4162433;28;20071;-79
2023/04/30 00:34:15;;;;;;;11.60;7.07;;;7.00;99.90;;;;;;4163130;28;20041;-79
2023/04/30 00:36:16;;;;;;;14.13;6.93;;;6.90;99.90;;;;;;4163189;28;20689;-78
2023/04/30 00:38:18;;;;;;;13.17;7.07;;;7.00;99.90;;;;;;4163984;28;20374;-79
2023/04/30 00:40:19;;;;;;;12.90;7.23;;;7.00;99.90;;;;;;4163164;28;20095;-78
2023/04/30 00:42:21;;;;;;;10.93;7.03;;;7.00;99.90;;;;;;4162992;28;20033;-74
2023/04/30 00:44:22;;;;;;;13.87;6.67;;;6.90;99.90;;;;;;4163039;28;20433;-78
2023/04/30 00:46:23;;;;;;;12.20;7.00;;;7.00;99.90;;;;;;4162425;28;20547;-79
2023/04/30 00:48:25;;;;;;;11.87;7.17;;;7.00;99.90;;;;;;4164123;28;20433;-78
2023/04/30 00:50:27;;;;;;;12.33;6.77;;;7.00;99.90;;;;;;4162796;28;20030;-79
2023/04/30 00:52:28;;;;;;;11.37;6.77;;;7.00;99.90;;;;;;4163856;28;20052;-79
2023/04/30 00:54:30;;;;;;;13.33;5.90;;;7.00;99.90;;;;;;4162576;28;20022;-79
2023/04/30 00:56:31;;;;;;;8.37;6.50;;;7.00;99.90;;;;;;4162084;28;20033;-75
2023/04/30 00:58:33;;;;;;;9.80;5.43;;;7.00;99.90;;;;;;4162556;28;20022;-79
2023/04/30 01:00:34;;;;;;;10.10;6.03;;;7.00;99.90;;;;;;4163351;28;20092;-65
2023/04/30 01:02:39;;;;;;;16.60;6.00;;;7.10;99.90;;;;;;4161586;28;20440;-77
2023/04/30 01:04:40;;;;;;;9.43;5.10;;;7.00;99.90;;;;;;4163567;28;20045;-74
2023/04/30 01:06:42;;;;;;;10.23;6.00;;;7.10;99.90;;;;;;4162257;28;20088;-79
2023/04/30 01:08:43;;;;;;;11.20;5.80;;;7.10;99.90;;;;;;4156344;28;20022;-70
2023/04/30 01:10:51;;;;;;;8.70;7.10;;;7.10;99.90;;;;;;4146156;28;20033;-66
2023/04/30 01:13:11;;;;;;;9.47;5.87;;;7.00;99.90;;;;;;4146473;28;20022;-79
2023/04/30 01:15:32;;;;;;;7.95;5.45;;;7.10;99.90;;;;;;4145849;28;20075;-68
2023/04/30 01:17:40;;;;;;;8.77;5.75;;;7.00;99.90;;;;;;4146987;28;20046;-78
2023/04/30 01:19:45;;;;;;;13.70;6.07;;;7.00;99.90;;;;;;4145635;28;20042;-78
2023/04/30 01:21:47;;;;;;;10.37;6.20;;;7.00;99.90;;;;;;4146335;28;20042;-78
2023/04/30 01:24:06;;;;;;;11.33;5.93;;;7.00;99.90;;;;;;4145414;28;20080;-75
2023/04/30 01:26:11;;;;;;;8.87;5.53;;;7.00;99.90;;;;;;4146109;28;20029;-78
2023/04/30 01:28:16;;;;;;;7.90;5.77;;;7.00;99.90;;;;;;4145549;28;20026;-62
2023/04/30 01:30:18;;;;;;;10.70;6.27;;;6.90;99.90;;;;;;4146058;28;20045;-74
2023/04/30 01:32:19;;;;;;;10.23;5.87;;;6.90;99.90;;;;;;4145313;28;20116;-77
2023/04/30 01:34:20;;;;;;;8.37;5.47;;;6.90;99.90;;;;;;4145765;28;20042;-78
2023/04/30 01:36:54;;;;;;;9.77;5.57;;;6.90;99.90;;;;;;4145654;28;20034;-73
2023/04/30 01:39:14;;;;;;;11.70;6.00;;;6.90;99.90;;;;;;4146357;28;20084;-75
2023/04/30 01:41:33;;;;;;;10.50;5.37;;;6.90;99.90;;;;;;4127816;28;20085;-77
2023/04/30 01:43:37;;;;;;;8.90;5.40;;;6.90;99.90;;;;;;4146593;28;20030;-77
2023/04/30 01:46:18;;;;;;;8.93;5.50;;;6.90;99.90;;;;;;4150825;28;20025;-70
2023/04/30 01:48:34;;;;;;;12.15;5.78;;;6.90;99.90;;;;;;4153817;28;20112;-78
2023/04/30 01:50:46;;;;;;;9.87;5.00;;;6.90;99.90;;;;;;4161366;28;20049;-78
2023/04/30 01:52:56;;;;;;;11.83;5.90;;;6.90;99.90;;;;;;4162661;28;20037;-74
2023/04/30 01:55:07;;;;;;;11.27;5.87;;;6.80;99.90;;;;;;4161518;28;20375;-67
2023/04/30 01:57:16;;;;;;;7.57;5.03;;;6.80;99.90;;;;;;4162209;28;20092;-78
2023/04/30 01:59:18;;;;;;;9.70;5.93;;;6.80;99.90;;;;;;4160948;28;20040;-68
2023/04/30 02:01:30;;;;;;;10.63;5.87;;;6.80;99.90;;;;;;4161826;28;20506;-76
2023/04/30 02:03:32;;;;;;;9.70;6.03;;;6.80;99.90;;;;;;4144897;28;20096;-78
2023/04/30 02:05:33;;;;;;;8.47;5.67;;;6.70;99.90;;;;;;4146303;28;20443;-77
2023/04/30 02:07:42;;;;;;;11.23;6.37;;;6.70;99.90;;;;;;4127134;28;20089;-64
2023/04/30 02:09:44;;;;;;;9.17;5.60;;;6.60;99.90;;;;;;4146062;28;20422;-77
2023/04/30 02:11:45;;;;;;;8.20;5.43;;;6.60;99.90;;;;;;4144596;28;20430;-68
2023/04/30 02:13:46;;;;;;;10.33;6.20;;;6.60;99.90;;;;;;4145637;28;20046;-74
2023/04/30 02:15:47;;;;;;;8.17;5.77;;;6.60;99.90;;;;;;4144530;28;20038;-63
2023/04/30 02:17:48;;;;;;;9.40;5.10;;;6.50;99.90;;;;;;4145814;28;20045;-74
2023/04/30 02:19:50;;;;;;;10.53;5.40;;;6.60;99.90;;;;;;4144760;28;20572;-77
2023/04/30 02:21:51;;;;;;;10.17;5.03;;;6.60;99.90;;;;;;4127894;28;20088;-79
2023/04/30 02:23:52;;;;;;;10.27;5.27;;;6.60;99.90;;;;;;4160655;28;20033;-65
2023/04/30 02:25:53;;;;;;;14.53;5.43;;;6.60;99.90;;;;;;4143788;28;20030;-70
2023/04/30 02:27:54;;;;;;;8.03;4.33;;;6.70;99.90;;;;;;4161652;28;20021;-68
2023/04/30 02:29:56;;;;;;;8.73;5.13;;;6.60;99.90;;;;;;4161074;28;20030;-61
2023/04/30 02:31:58;;;;;;;6.30;4.47;;;6.70;99.90;;;;;;4161680;28;20033;-78
2023/04/30 02:33:59;;;;;;;9.33;4.73;;;6.70;99.90;;;;;;4161018;28;20433;-78
2023/04/30 02:36:00;;;;;;;6.40;5.17;;;6.70;99.90;;;;;;4162288;28;20473;-76
2023/04/30 02:38:01;;;;;;;6.33;4.83;;;6.70;99.90;;;;;;4160350;28;20397;-78
2023/04/30 02:40:03;;;;;;;7.20;4.47;;;6.70;99.90;;;;;;4162041;28;20088;-76
2023/04/30 02:42:05;;;;;;;7.90;4.67;;;6.70;99.90;;;;;;4160893;28;20535;-76
2023/04/30 02:44:06;;;;;;;7.00;4.50;;;6.70;99.90;;;;;;4162045;28;21024;-71
2023/04/30 02:46:07;;;;;;;8.33;4.80;;;6.60;99.90;;;;;;4160503;28;20084;-76
2023/04/30 02:48:09;;;;;;;8.03;4.40;;;6.70;99.90;;;;;;4161973;28;20085;-73
2023/04/30 02:50:10;;;;;;;5.97;4.27;;;6.70;99.90;;;;;;4161113;28;20426;-76
2023/04/30 02:52:11;;;;;;;7.03;4.30;;;6.70;99.90;;;;;;4161212;28;20421;-80
2023/04/30 02:54:12;;;;;;;7.70;4.33;;;6.60;99.90;;;;;;4160861;28;20026;-79
2023/04/30 02:56:13;;;;;;;8.30;5.20;;;6.70;99.90;;;;;;4160450;28;20051;-74
2023/04/30 02:58:14;;;;;;;5.77;4.37;;;6.70;99.90;;;;;;4161053;28;20083;-77
2023/04/30 03:00:16;;;;;;;8.73;4.77;;;6.60;99.90;;;;;;4160418;28;20083;-78
2023/04/30 03:02:20;;;;;;;6.67;4.60;;;6.60;99.90;;;;;;4161756;28;20033;-78
2023/04/30 03:04:21;;;;;;;8.10;4.90;;;6.60;99.90;;;;;;4160704;28;20025;-72
2023/04/30 03:06:22;;;;;;;6.20;4.83;;;6.50;99.90;;;;;;4161906;28;20025;-74
2023/04/30 03:08:23;;;;;;;8.77;4.70;;;6.50;99.90;;;;;;4160753;28;20037;-74
2023/04/30 03:10:24;;;;;;;12.07;5.67;;;6.40;99.90;;;;;;4161954;28;20037;-74
2023/04/30 03:12:26;;;;;;;16.57;10.23;;;6.40;99.90;;;;;;4160681;28;20021;-76
2023/04/30 03:14:27;;;;;;;24.33;13.60;;;6.40;99.90;;;;;;4161743;28;20045;-79
2023/04/30 03:16:29;;;;;;;20.87;11.73;;;6.50;99.90;;;;;;4160717;28;20140;-70
2023/04/30 03:18:31;;;;;;;13.17;8.20;;;6.40;99.90;;;;;;4162064;28;20042;-77
2023/04/30 03:20:32;;;;;;;19.90;11.33;;;6.40;99.90;;;;;;4160360;28;20041;-77
2023/04/30 03:22:33;;;;;;;11.10;6.10;;;6.50;99.90;;;;;;4161193;28;20041;-68
2023/04/30 03:24:34;;;;;;;8.73;5.90;;;6.50;99.90;;;;;;4160820;28;20417;-77
2023/04/30 03:26:35;;;;;;;10.67;7.03;;;6.70;99.90;;;;;;4160604;28;20041;-79
2023/04/30 03:28:36;;;;;;;18.97;10.20;;;6.90;99.90;;;;;;4161412;28;20433;-74
2023/04/30 03:30:37;;;;;;;16.27;8.40;;;7.00;99.90;;;;;;4159732;28;20099;-78
2023/04/30 03:32:38;;;;;;;10.33;6.47;;;7.10;99.90;;;;;;4148868;28;20030;-78
2023/04/30 03:34:40;;;;;;;9.40;5.63;;;7.20;99.90;;;;;;4144299;28;20021;-77
2023/04/30 03:36:41;;;;;;;5.87;4.70;;;7.10;99.90;;;;;;4145311;28;20406;-72
2023/04/30 03:38:42;;;;;;;6.97;4.80;;;7.00;99.90;;;;;;4143660;28;20054;-79
2023/04/30 03:40:43;;;;;;;8.33;5.27;;;7.10;99.90;;;;;;4145047;28;20096;-68
2023/04/30 03:42:44;;;;;;;11.57;5.90;;;7.10;99.90;;;;;;4144065;28;20038;-70
2023/04/30 03:44:45;;;;;;;12.43;6.77;;;7.10;99.90;;;;;;4144590;28;20864;-73
2023/04/30 03:46:46;;;;;;;12.80;8.30;;;7.10;99.90;;;;;;4157771;28;20037;-77
2023/04/30 03:48:47;;;;;;;12.80;7.60;;;7.10;99.90;;;;;;4145824;28;20042;-78
2023/04/30 03:50:48;;;;;;;23.57;12.47;;;7.10;99.90;;;;;;4162967;28;20045;-74
2023/04/30 03:52:50;;;;;;;35.00;19.27;;;7.20;99.90;;;;;;4164734;28;20038;-79
2023/04/30 03:54:51;;;;;;;22.33;11.13;;;7.40;99.90;;;;;;4164009;28;20038;-75
2023/04/30 03:56:52;;;;;;;16.20;10.27;;;7.90;99.90;;;;;;4163283;28;20103;-79
2023/04/30 03:58:53;;;;;;;12.43;7.90;;;8.40;99.90;;;;;;4164309;28;20034;-75
2023/04/30 04:00:55;;;;;;;9.73;5.43;;;8.90;99.90;;;;;;4162835;28;20064;-78
2023/04/30 04:02:58;;;;;;;16.10;9.47;;;9.40;99.90;;;;;;4164335;28;20045;-63
2023/04/30 04:04:59;;;;;;;34.37;20.47;;;9.80;99.90;;;;;;4146548;28;20080;-73
2023/04/30 04:07:02;;;;;;;48.77;27.40;;;10.20;99.90;;;;;;4164586;28;20095;-75
2023/04/30 04:09:03;;;;;;;35.20;20.07;;;10.60;99.90;;;;;;4161478;28;21089;-75
2023/04/30 04:11:04;;;;;;;12.63;8.60;;;11.20;99.90;;;;;;4163152;28;20087;-69
2023/04/30 04:13:05;;;;;;;15.57;9.93;;;11.50;99.90;;;;;;4162431;28;20045;-78
2023/04/30 04:15:07;;;;;;;20.03;13.40;;;12.00;99.90;;;;;;4163991;28;20025;-78
2023/04/30 04:17:09;;;;;;;16.07;9.43;;;12.30;99.90;;;;;;4162991;28;20104;-78
2023/04/30 04:19:11;;;;;;;15.70;9.17;;;12.50;99.90;;;;;;4164173;28;20076;-78
2023/04/30 04:21:13;;;;;;;19.43;13.33;;;12.40;99.90;;;;;;4163025;28;20037;-74
2023/04/30 04:23:14;;;;;;;21.47;13.60;;;12.60;99.90;;;;;;4163179;28;20053;-78
2023/04/30 04:25:16;;;;;;;27.80;14.03;;;12.90;99.90;;;;;;4163397;28;20072;-70
2023/04/30 04:27:19;;;;;;;21.17;12.10;;;13.10;99.90;;;;;;4163426;28;20029;-80
2023/04/30 04:29:20;;;;;;;18.33;11.20;;;13.20;99.90;;;;;;4163275;28;20037;-75
2023/04/30 04:31:21;;;;;;;18.17;11.23;;;13.50;99.90;;;;;;4161596;28;20095;-78
2023/04/30 04:33:22;;;;;;;15.17;10.17;;;13.80;99.90;;;;;;4163808;28;20061;-74
2023/04/30 04:35:23;;;;;;;11.60;7.50;;;13.80;99.90;;;;;;4144964;28;20100;-79
2023/04/30 04:37:25;;;;;;;10.07;6.27;;;14.00;99.90;;;;;;4163731;28;20091;-65
2023/04/30 04:39:26;;;;;;;8.47;6.07;;;14.00;99.90;;;;;;4162075;28;20049;-67
2023/04/30 04:41:28;;;;;;;10.13;6.97;;;14.30;99.90;;;;;;4163029;28;20037;-79
2023/04/30 04:43:29;;;;;;;7.63;5.43;;;14.40;99.90;;;;;;4162511;28;20025;-73
2023/04/30 04:45:30;;;;;;;6.13;4.13;;;14.50;99.90;;;;;;4162528;28;20548;-77
2023/04/30 04:47:32;;;;;;;8.50;5.40;;;14.30;99.90;;;;;;4162362;28;20030;-78
2023/04/30 04:49:33;;;;;;;9.30;6.27;;;13.90;99.90;;;;;;4163445;28;20049;-66
2023/04/30 04:51:35;;;;;;;13.17;7.37;;;13.70;99.90;;;;;;4162453;28;20091;-73
2023/04/30 04:53:36;;;;;;;16.40;7.43;;;13.20;99.90;;;;;;4145721;28;20069;-72
2023/04/30 04:55:37;;;;;;;6.80;5.50;;;12.80;99.90;;;;;;4161971;28;20037;-78
2023/04/30 04:57:40;;;;;;;6.37;4.63;;;12.40;99.90;;;;;;4162326;28;20053;-75
2023/04/30 04:59:41;;;;;;;5.87;4.00;;;12.10;99.90;;;;;;4162508;28;20076;-76
2023/04/30 05:01:43;;;;;;;9.53;6.20;;;12.10;99.90;;;;;;4162222;28;20029;-76
2023/04/30 05:03:44;;;;;;;17.13;9.80;;;12.50;99.90;;;;;;4163180;28;20367;-75
2023/04/30 05:05:45;;;;;;;8.33;5.47;;;12.60;99.90;;;;;;4161746;28;20079;-79
2023/04/30 05:07:47;;;;;;;7.57;4.00;;;12.60;99.90;;;;;;4163018;28;20099;-75
2023/04/30 05:09:48;;;;;;;4.77;3.40;;;12.50;99.90;;;;;;4161834;28;20099;-77
2023/04/30 05:11:49;;;;;;;6.97;3.90;;;12.40;99.90;;;;;;4145391;28;20433;-71
2023/04/30 05:13:51;;;;;;;5.30;3.17;;;12.40;99.90;;;;;;4162046;28;20072;-75
2023/04/30 05:15:52;;;;;;;4.00;3.27;;;12.90;99.90;;;;;;4163095;28;20370;-76
2023/04/30 05:17:54;;;;;;;6.60;3.67;;;13.50;99.90;;;;;;4161827;28;20072;-79
2023/04/30 05:19:55;;;;;;;6.30;3.37;;;14.10;99.90;;;;;;4163473;28;20056;-78
2023/04/30 05:21:56;;;;;;;8.70;5.10;;;14.40;99.90;;;;;;4155010;28;20017;-72
2023/04/30 05:23:57;;;;;;;7.20;3.90;;;14.70;99.50;;;;;;4146632;28;20034;-78
2023/04/30 05:25:58;;;;;;;8.03;3.50;;;15.30;99.10;;;;;;4145159;28;20034;-75
2023/04/30 05:27:59;;;;;;;6.83;3.10;;;15.60;98.10;;;;;;4145937;28;20438;-71
2023/04/30 05:30:01;;;;;;;4.53;3.53;;;16.00;97.30;;;;;;4145753;28;20022;-61
2023/04/30 05:32:02;;;;;;;8.07;3.40;;;16.20;96.80;;;;;;4144953;28;20057;-79
2023/04/30 05:34:04;;;;;;;6.23;3.30;;;16.30;96.20;;;;;;4146165;28;20046;-78
2023/04/30 05:36:06;;;;;;;5.80;3.60;;;16.40;95.90;;;;;;4145056;28;20022;-77
2023/04/30 05:38:07;;;;;;;4.97;3.20;;;;;;;;;;4150589;28;20133;-75
2023/04/30 05:40:09;;;;;;;5.73;3.27;;;;;;;;;;4155149;28;20089;-81
2023/04/30 05:42:10;;;;;;;6.13;3.30;;;;;;;;;;4146292;28;20030;-74
2023/04/30 05:44:12;;;;;;;4.63;3.35;;;;;;;;;;4150789;28;20034;-81
2023/04/30 05:46:13;;;;;;;6.38;3.38;;;;;;;;;;4162538;28;20025;-74
2023/04/30 05:48:14;;;;;;;9.45;3.55;;;;;;;;;;4161423;28;20030;-76
2023/04/30 05:50:16;;;;;;;4.25;3.50;;;;;;;;;;4162476;28;20037;-80
2023/04/30 05:52:17;;;;;;;6.40;3.17;;;;;;;;;;4160532;28;20029;-77
2023/04/30 05:54:19;;;;;;;8.15;3.20;;;;;;;;;;4161524;28;20076;-77
2023/04/30 05:56:20;;;;;;;5.68;3.00;;;;;;;;;;4155958;28;20021;-70
2023/04/30 05:58:21;;;;;;;5.15;3.00;;;;;;;;;;4138116;28;20130;-75
2023/04/30 06:00:23;;;;;;;9.50;3.17;;;;;;;;;;4161380;28;20041;-62
2023/04/30 06:02:24;;;;;;;4.40;2.83;;;;;;;;;;4160424;28;20167;-65
2023/04/30 06:04:26;;;;;;;5.80;3.22;;;;;;;;;;4161574;28;20021;-61
2023/04/30 06:06:27;;;;;;;4.53;3.25;;;;;;;;;;4160154;28;20041;-78
2023/04/30 06:08:29;;;;;;;4.55;3.30;;;;;;;;;;4161463;28;20037;-70
2023/04/30 06:10:30;;;;;;;5.55;3.45;;;;;;;;;;4142439;28;20033;-77
2023/04/30 06:12:32;;;;;;;6.05;2.97;;;;;;;;;;4161437;28;20432;-63
2023/04/30 06:14:34;;;;;;;6.75;3.10;;;;;;;;;;4160673;28;20095;-78
2023/04/30 06:16:36;;;;;;;5.35;3.17;;;;;;;;;;4161384;28;20079;-75
2023/04/30 06:18:37;;;;;;;3.28;2.60;;;;;;;;;;4160262;28;20049;-77
2023/04/30 06:20:38;;;;;;;3.85;2.85;;;;;;;;;;4160572;28;20050;-64
2023/04/30 06:22:40;;;;;;;5.97;3.63;;;;;;;;;;4160473;28;20037;-62
2023/04/30 06:24:41;;;;;;;6.22;3.25;;;;;;;;;;4161299;28;20045;-76
2023/04/30 06:26:43;;;;;;;6.65;3.60;;;;;;;;;;4149484;28;20026;-80
2023/04/30 06:28:45;;;;;;;3.92;2.72;;;;;;;;;;4149769;28;20033;-78
2023/04/30 06:30:47;;;;;;;3.33;2.90;;;;;;;;;;4147353;28;20343;-69
2023/04/30 06:32:48;;;;;;;8.82;2.95;;;;;;;;;;4143957;28;20104;-69
2023/04/30 06:34:49;;;;;;;3.80;2.50;;;;;;;;;;4144616;28;20422;-71
2023/04/30 06:36:51;;;;;;;6.18;3.00;;;;;;;;;;4144458;28;20033;-78
2023/04/30 06:38:52;;;;;;;5.88;2.60;;;;;;;;;;4145105;28;20029;-65
2023/04/30 06:40:54;;;;;;;3.45;2.78;;;;;;;;;;4145552;28;20441;-67
2023/04/30 06:42:55;;;;;;;3.95;2.90;;;;;;;;;;4161484;28;20103;-71
2023/04/30 06:44:56;;;;;;;3.60;2.85;;;;;;;;;;4159565;28;20084;-60
2023/04/30 06:46:58;;;;;;;5.85;2.83;;;;;;;;;;4161623;28;20087;-67
2023/04/30 06:48:59;;;;;;;5.38;3.00;;;;;;;;;;4148783;28;20564;-61
2023/04/30 06:51:01;;;;;;;4.35;2.78;;;;;;;;;;4145060;28;20072;-65
2023/04/30 06:53:02;;;;;;;4.72;3.22;;;;;;;;;;4143404;28;20474;-61
2023/04/30 06:55:03;;;;;;;3.03;2.75;;;;;;;;;;4144802;28;20078;-62
2023/04/30 06:57:06;;;;;;;25.42;5.60;;;;;;;;;;4143880;28;20029;-66
2023/04/30 06:59:07;;;;;;;7.82;3.75;;;;;;;;;;4144084;28;20046;-70
2023/04/30 07:01:09;;;;;;;21.27;5.00;;;;;;;;;;4154342;28;20091;-60
2023/04/30 07:03:10;;;;;;;14.27;3.83;;;17.10;95.30;;;;;;4160938;28;20071;-65
2023/04/30 07:05:12;;;;;;;7.10;2.78;;;18.50;80.90;;;;;;4160461;28;20087;-68
2023/04/30 07:07:14;;;;;;;6.70;3.13;;;17.80;81.20;;;;;;4159596;28;20375;-65
2023/04/30 07:09:15;;;;;;;12.50;4.35;;;17.20;82.50;;;;;;4160897;28;20091;-75
2023/04/30 07:11:16;;;;;;;5.25;3.20;;;17.10;83.70;;;;;;4159765;28;20084;-70
2023/04/30 07:13:18;;;;;;;5.75;3.03;;;16.80;84.80;;;;;;4159136;28;20072;-66
2023/04/30 07:15:19;;;;;;;5.95;3.33;;;16.80;85.40;;;;;;4159920;28;20494;-74
2023/04/30 07:17:20;;;;;;;9.63;3.38;;;16.60;86.00;;;;;;4160840;28;20053;-73
2023/04/30 07:19:24;;;;;;;16.67;4.75;;;16.50;86.50;;;;;;4160479;28;20033;-71
2023/04/30 07:21:26;;;;;;;4.25;2.90;;;16.40;87.10;;;;;;4161013;28;20037;-74
2023/04/30 07:23:27;;;;;;;5.90;3.42;;;16.60;87.30;;;;;;4159073;28;20025;-76
2023/04/30 07:25:28;;;;;;;7.97;2.95;;;16.90;87.10;;;;;;4153757;28;20034;-74
2023/04/30 07:27:29;;;;;;;3.95;2.70;;;17.30;86.60;;;;;;4146053;28;20084;-73
2023/04/30 07:29:31;;;;;;;5.68;2.80;;;17.70;86.00;;;;;;4156422;28;20083;-71
2023/04/30 07:31:33;;;;;;;3.00;2.45;;;17.80;85.70;;;;;;4145394;28;20552;-71
2023/04/30 07:33:34;;;;;;;3.92;2.58;;;17.90;85.50;;;;;;4163824;28;20033;-60
2023/04/30 07:35:35;;;;;;;6.72;2.40;;;17.80;85.20;;;;;;4163502;28;20471;-70
2023/04/30 07:37:36;;;;;;;8.20;3.00;;;17.70;85.60;;;;;;4161946;28;20099;-68
2023/04/30 07:39:37;;;;;;;4.80;2.45;;;17.70;85.50;;;;;;4163833;28;20072;-77
2023/04/30 07:41:39;;;;;;;6.45;2.78;;;17.80;85.30;;;;;;4153609;28;20054;-62
2023/04/30 07:43:40;;;;;;;7.28;2.78;;;18.00;85.30;;;;;;4146687;28;20180;-76
2023/04/30 07:45:42;;;;;;;3.17;2.53;;;18.10;85.00;;;;;;4146371;28;20072;-73
2023/04/30 07:47:43;;;;;;;4.03;2.88;;;18.30;84.90;;;;;;4159844;28;20029;-71
2023/04/30 07:49:46;;;;;;;8.00;3.45;;;18.60;84.40;;;;;;4162626;28;20037;-68
2023/04/30 07:51:47;;;;;;;5.72;3.08;;;18.70;84.10;;;;;;4161604;28;20037;-79
2023/04/30 07:53:48;;;;;;;4.43;2.70;;;18.90;83.90;;;;;;4162848;28;20084;-73
2023/04/30 07:55:49;;;;;;;9.88;3.30;;;19.10;82.80;;;;;;4163267;28;20087;-61
2023/04/30 07:57:50;;;;;;;4.47;2.55;;;19.10;83.70;;;;;;4160024;28;20033;-61
2023/04/30 07:59:53;;;;;;;5.75;2.35;;;19.00;83.30;;;;;;4164568;28;20501;-62
2023/04/30 08:01:54;;;;;;;3.88;2.28;;;19.00;83.50;;;;;;4149794;28;20111;-62
2023/04/30 08:03:55;;;;;;;5.63;3.53;;;19.20;83.30;;;;;;4147404;28;20088;-76
2023/04/30 08:05:56;;;;;;;7.22;2.97;;;19.20;83.00;;;;;;4147162;28;20026;-61
2023/04/30 08:07:57;;;;;;;5.32;3.35;;;18.80;83.50;;;;;;4147305;28;20029;-80
2023/04/30 08:10:00;;;;;;;4.97;3.08;;;18.50;84.10;;;;;;4147181;28;20466;-77
2023/04/30 08:12:03;;;;;;;5.95;2.70;;;18.50;84.40;;;;;;4145601;28;20034;-70
2023/04/30 08:14:05;;;;;;;3.55;2.90;;;18.70;84.10;;;;;;4147312;28;20034;-69
2023/04/30 08:16:07;;;;;;;3.95;2.70;;;18.80;84.00;;;;;;4146376;28;20017;-62
2023/04/30 08:18:08;;;;;;;6.30;3.30;;;18.80;84.10;;;;;;4147365;28;20054;-61
2023/04/30 08:20:10;;;;;;;4.63;2.42;;;18.80;84.30;;;;;;4146378;28;20042;-62
2023/04/30 08:22:11;;;;;;;5.38;2.47;;;18.80;84.50;;;;;;4147330;28;20096;-73
2023/04/30 08:24:12;;;;;;;4.57;3.10;;;18.90;84.40;;;;;;4145888;28;20092;-77
2023/04/30 08:26:13;;;;;;;5.05;2.50;;;19.10;84.50;;;;;;4158070;28;20082;-72
2023/04/30 08:28:14;;;;;;;4.50;2.50;;;19.10;84.10;;;;;;4161913;28;20099;-75
2023/04/30 08:30:16;;;;;;;3.65;2.45;;;19.10;83.60;;;;;;4162817;28;20544;-70
2023/04/30 08:32:18;;;;;;;4.03;2.70;;;;;;;;;;4162310;28;20139;-75
2023/04/30 08:34:21;;;;;;;6.47;4.18;;;;;;;;;;4163365;28;20033;-77
2023/04/30 08:36:22;;;;;;;5.25;2.97;;;19.20;83.70;;;;;;4161419;28;20030;-73
2023/04/30 08:38:23;;;;;;;3.00;2.67;;;19.30;82.80;;;;;;4146862;28;20076;-78
2023/04/30 08:40:26;;;;;;;3.88;2.38;;;19.50;83.10;;;;;;4149268;28;20033;-76
2023/04/30 08:42:34;;;;;;;5.72;3.00;;;19.60;83.10;;;;;;4146018;28;20478;-71
2023/04/30 08:44:42;;;;;;;10.38;3.88;;;19.60;82.60;;;;;;4129062;28;20130;-73
2023/04/30 08:46:43;;;;;;;4.82;2.65;;;19.70;82.60;;;;;;4145994;28;20018;-72
2023/04/30 08:48:47;;;;;;;7.60;3.47;;;19.60;82.90;;;;;;4146861;28;20034;-79
2023/04/30 08:50:48;;;;;;;12.55;3.72;;;19.30;82.50;;;;;;4145811;28;20474;-62
2023/04/30 08:52:49;;;;;;;10.05;3.92;;;18.80;83.50;;;;;;4146251;28;20105;-72
2023/04/30 08:54:53;;;;;;;8.50;3.40;;;18.80;84.10;;;;;;4144974;28;20116;-69
2023/04/30 08:56:54;;;;;;;4.55;2.45;;;19.00;84.30;;;;;;4145565;28;20069;-70
2023/04/30 08:58:55;;;;;;;4.85;2.40;;;19.20;83.70;;;;;;4144399;28;20034;-62
2023/04/30 09:01:01;;;;;;;5.28;2.85;;;19.50;83.30;;;;;;4146185;28;20080;-62
2023/04/30 09:03:02;;;;;;;7.97;2.70;;;19.30;82.60;;;;;;4145389;28;20076;-68
2023/04/30 09:05:15;;;;;;;1.92;1.65;;;19.40;83.10;;;;;;4148785;28;20034;-72
2023/04/30 09:07:17;;;;;;;4.18;2.10;;;19.40;82.30;;;;;;4145350;28;20544;-73
2023/04/30 09:09:19;;;;;;;4.55;2.15;;;;;;;;;;4146309;28;20061;-72
2023/04/30 09:11:27;;;;;;;7.40;2.42;;;;;;;;;;4145428;28;20173;-71
2023/04/30 09:13:40;;;;;;;4.20;2.47;;;;;;;;;;4148015;28;20072;-71
2023/04/30 09:15:44;;;;;;;4.30;2.00;;;;;;;;;;4160642;28;20177;-69
2023/04/30 09:17:45;;;;;;;2.25;1.80;;;19.50;82.20;;;;;;4159272;28;20053;-62
2023/04/30 09:19:46;;;;;;;2.50;1.67;;;19.90;81.40;;;;;;4149185;28;20486;-67
2023/04/30 09:21:47;;;;;;;2.72;1.85;;;19.80;81.20;;;;;;4145837;28;20123;-77
2023/04/30 09:23:56;;;;;;;3.28;1.77;;;19.70;81.10;;;;;;4145223;28;20092;-72
2023/04/30 09:25:57;;;;;;;2.80;2.10;;;19.30;81.10;;;;;;4144333;28;20470;-72
2023/04/30 09:28:10;;;;;;;18.15;3.88;;;19.10;82.10;;;;;;4144350;28;20076;-74
2023/04/30 09:30:30;;;;;;;12.30;3.58;;;19.10;83.10;;;;;;4145258;28;20133;-79
2023/04/30 09:32:31;;;;;;;;;;;19.40;82.00;;;;;;4144666;28;20092;-64
2023/04/30 09:34:35;;;;;;;12.73;2.70;;;19.20;82.60;;;;;;4144565;28;19909;-73
2023/04/30 09:36:36;;;;;;;2.97;2.67;;;19.30;83.30;;;;;;4145402;28;20030;-63
2023/04/30 09:38:38;;;;;;;5.97;1.88;;;19.50;83.00;;;;;;4144576;28;20080;-69
2023/04/30 09:40:41;;;;;;;4.65;2.78;;;19.60;82.90;;;;;;4145505;28;20029;-66
2023/04/30 09:42:58;;;;;;;5.20;3.10;;;19.30;83.10;;;;;;4144702;28;20026;-72
2023/04/30 09:45:00;;;;;;;3.90;2.78;;;;;;;;;;4145624;28;20030;-72
2023/04/30 09:47:01;;;;;;;4.18;2.80;;;;;;;;;;4143594;28;20042;-65
2023/04/30 09:49:03;;;;;;;2.95;2.13;;;;;;;;;;4145988;28;20762;-70
2023/04/30 09:51:04;;;;;;;4.13;2.80;;;;;;;;;;4150727;28;20524;-71
2023/04/30 09:53:12;;;;;;;28.17;5.88;;;;;;;;;;4162114;28;20025;-66
2023/04/30 09:55:13;;;;;;;6.55;2.53;;;19.40;84.40;;;;;;4160924;28;20626;-70
2023/04/30 09:57:15;;;;;;;13.07;3.25;;;19.50;82.50;;;;;;4162013;28;20033;-72
2023/04/30 09:59:20;;;;;;;4.72;1.67;;;;;;;;;;4159489;28;20421;-72
2023/04/30 10:01:22;;;;;;;4.50;2.10;;;;;;;;;;4162158;28;20409;-71
2023/04/30 10:03:23;;;;;;;2.85;1.60;;;19.70;83.10;;;;;;4156385;28;20034;-73
2023/04/30 10:05:25;;;;;;;2.53;1.70;;;19.70;79.70;;;;;;4145789;28;20026;-69
2023/04/30 10:07:35;;;;;;;2.90;2.40;;;19.30;80.70;;;;;;4148009;28;20050;-74
2023/04/30 10:09:46;;;;;;;3.37;2.17;;;19.40;81.90;;;;;;4158258;28;20025;-72
2023/04/30 10:11:49;;;;;;;4.57;2.20;;;19.60;82.30;;;;;;4154786;28;20493;-73
2023/04/30 10:13:58;;;;;;;2.88;1.77;;;19.30;82.50;;;;;;4150785;28;20482;-73
2023/04/30 10:16:22;;;;;;;5.43;3.40;;;19.00;82.70;;;;;;4144270;28;20045;-65
2023/04/30 10:18:36;;;;;;;3.85;2.28;;;18.80;83.40;;;;;;4151417;28;20034;-70
2023/04/30 10:20:38;;;;;;;2.20;1.90;;;18.90;83.80;;;;;;4156018;28;20375;-61
2023/04/30 10:22:40;;;;;;;4.32;2.10;;;18.60;83.10;;;;;;4149537;28;20095;-71
2023/04/30 10:24:43;;;;;;;4.13;2.10;;;18.70;84.00;;;;;;4154944;28;20486;-71
2023/04/30 10:26:46;;;;;;;5.65;2.45;;;18.50;83.70;;;;;;4148485;28;20103;-72
2023/04/30 10:28:49;;;;;;;2.78;1.88;;;18.30;83.90;;;;;;4152455;28;20087;-71
2023/04/30 10:30:51;;;;;;;4.47;2.15;;;18.30;84.30;;;;;;4152041;28;20042;-72
2023/04/30 10:33:14;;;;;;;9.98;2.22;;;18.50;84.50;;;;;;4160554;28;20545;-71
2023/04/30 10:35:58;;;;;;;2.83;1.58;;;18.60;83.80;;;;;;4161022;28;20091;-75
2023/04/30 10:38:05;;;;;;;6.63;1.90;;;18.70;83.10;;;;;;4159403;28;20482;-69
2023/04/30 10:40:08;;;;;;;5.53;1.98;;;18.60;84.00;;;;;;4150999;28;20018;-65
2023/04/30 10:42:10;;;;;;;2.80;2.17;;;18.70;84.60;;;;;;4143783;28;20688;-69
2023/04/30 10:44:11;;;;;;;5.97;2.13;;;18.50;84.80;;;;;;4143984;28;20536;-74
2023/04/30 10:46:22;;;;;;;2.90;1.70;;;18.20;84.50;;;;;;4144167;28;20243;-78
2023/04/30 10:48:24;;;;;;;5.28;2.08;;;18.00;84.00;;;;;;4144247;28;20041;-75
2023/04/30 10:50:25;;;;;;;15.38;3.33;;;17.90;83.80;;;;;;4144335;28;20046;-74
2023/04/30 10:52:29;;;;;;;11.43;2.50;;;18.00;84.40;;;;;;4144828;28;20112;-69
2023/04/30 10:54:31;;;;;;;9.13;2.40;;;18.20;84.70;;;;;;4144496;28;20014;-67
2023/04/30 10:56:32;;;;;;;5.90;2.47;;;18.50;84.60;;;;;;4143830;28;20707;-70